Liscombe, United Kingdom
Current Conditions -  °F | °C
As of 6:50 AM on Thursday 23 Oct 2014 (Local Time) from EGDX Reporting Station
Broken Clouds Broken Clouds  
Wind Chill: 54°   Ceiling: 300
Heat Index: 54°   Visibility: 6mi
Dew Point: 54°   Wind: 14mph
Humidity: 100%   Direction: 230°SW
Pressure: 30.09"   Gusts: NA
Location:  51.08°N, 3.6°W
Report Text: EGDX 230550Z AUTO 23012KT 9999 BKN003/// BKN026/// 12/12 Q1019 RERA
Loading
Personal Weather Stations






























Interactive Weather Map
Tropical Storm Tracking
New forecast layout! Learn more

10-Day Weather Forecast

Advertisements
Track Severe Weather on mobile